Latest Coastal Weather Observations for Cerberus

IDV60701

Issued at 3:41 am EDT Friday 31 March 2017 (issued every 10 minutes, with the page automatically refreshed every 10 minutes)

About coastal observations | Map of coastal stations | Coastal observations for VIC | Marine services | Other Formats
Station Details ID: 086361 Name: CERBERUS Lat: -38.36 Lon: 145.18 Height: 12.69 m
Data from the previous 72 hours. | See also: Recent months at Cerberus
Date/Time
EDT
Temp
°C
Wind Pressure Rain since
9am
mm
Weather Cloud Vis
km
Sea
Height
m
Swell
Dir  Spd
kts
Gust
kts
hPa Trend Height
m
Period
s
Dir
31/03:30am 11.6 SSW 3 5 1020.0 - 3.6 - - - - - - -
31/03:00am 12.3 SSW 5 7 1020.3 - 3.6 - - - - - - -
31/02:30am 12.8 SSW 4 6 1020.6 - 3.6 - - - - - - -
31/02:00am 13.1 SSW 7 14 1020.7 - 3.6 - - - - - - -
31/01:30am 13.0 S 6 10 1020.7 - 3.6 - - - - - - -
31/01:00am 10.8 SSW 2 8 1020.8 - 3.6 - - - - - - -
31/12:30am 11.5 W 4 8 1021.1 - 3.6 - - - - - - -
31/12:00am 12.4 SSW 4 8 1021.3 - 3.6 - - - - - - -
 
Date/Time
EDT
Temp
°C
Wind Pressure Rain since
9am
mm
Weather Cloud Vis
km
Sea
Height
m
Swell
Dir  Spd
kts
Gust
kts
hPa Trend Height
m
Period
s
Dir
30/11:30pm 12.0 SSW 5 7 1021.6 - 3.6 - - - - - - -
30/11:00pm 11.9 SSW 5 9 1021.7 - 3.6 - - - - - - -
30/10:30pm 11.8 W 5 8 1021.8 - 3.6 - - - - - - -
30/10:00pm 10.5 NW 2 6 1021.8 - 3.6 - - - - - - -
30/09:30pm 10.8 S 3 5 1021.7 - 3.6 - - - - - - -
30/09:00pm 10.6 NW 3 7 1021.5 - 3.6 Recent precip. - - - - - -
30/08:30pm 11.2 SSE 7 14 1021.2 - 3.4 - - - - - - -
30/08:00pm 11.5 S 4 8 1020.8 - 3.0 - - - - - - -
30/07:30pm 12.8 SSW 10 16 1020.4 - 2.2 - - - - - - -
30/07:00pm 13.8 SW 8 13 1019.9 - 2.2 - - - - - - -
30/06:30pm 13.6 SW 8 13 1019.5 - 2.2 - - - - - - -
30/06:00pm 13.1 WSW 9 19 1019.2 - 2.2 Rain - - - - - -
30/05:30pm 15.4 SW 8 15 1018.7 - 1.2 - - - - - - -
30/05:00pm 16.0 SSW 12 17 1018.3 - 1.2 - - - - - - -
30/04:30pm 15.8 SSW 11 18 1018.1 - 1.2 - - - - - - -
30/04:00pm 15.9 SW 9 16 1017.8 - 1.2 - - - - - - -
30/03:30pm 15.5 SSW 6 14 1017.4 - 1.0 - - - - - - -
30/03:00pm 16.7 SSW 12 19 1017.3 - 0.8 - - - - - - -
30/02:30pm 16.4 SSW 12 19 1017.4 - 0.8 - - - - - - -
30/02:00pm 16.6 SSW 12 18 1017.2 - 0.8 - - - - - - -
30/01:30pm 16.5 SSW 13 19 1017.3 - 0.8 - - - - - - -
30/01:00pm 15.9 SW 13 22 1017.2 - 0.8 - - - - - - -
30/12:30pm 16.9 SSW 10 17 1017.0 - 0.8 - - - - - - -
30/12:00pm 15.7 SSW 12 18 1017.1 - 0.8 - - - - - - -
30/11:30am 15.2 SSW 12 19 1016.9 - 0.8 - - - - - - -
30/11:00am 15.1 SSW 6 11 1016.7 - 0.8 - - - - - - -
30/10:30am 13.1 SSW 5 8 1016.8 - 0.8 - - - - - - -
30/10:00am 12.8 SW 2 3 1016.6 - 0.8 - - - - - - -
30/09:30am 12.4 W 4 7 1016.2 - 0.0 - - - - - - -
30/09:00am 11.7 WNW 3 6 1015.8 - 11.8 Rain - - - - - -
30/08:30am 11.6 WNW 6 11 1015.3 - 11.2 - - - - - - -
30/08:00am 11.0 W 9 15 1014.9 - 11.2 - - - - - - -
30/07:30am 10.8 NW 4 8 1014.4 - 11.2 - - - - - - -
30/07:00am 10.5 WNW 6 9 1014.5 - 10.2 - - - - - - -
30/06:30am 9.4 NNW 3 4 1013.7 - 8.0 - - - - - - -
30/06:00am 10.3 NW 4 5 1013.2 - 8.0 - - - - - - -
30/05:30am 9.9 NW 4 4 1013.0 - 8.0 - - - - - - -
30/05:00am 10.1 CALM 0 0 1012.6 - 8.0 - - - - - - -
30/04:30am 10.8 SW 2 3 1012.7 - 8.0 - - - - - - -
30/04:00am 11.8 NW 6 10 1012.4 - 7.8 - - - - - - -
30/03:30am 11.2 NNW 3 5 1012.3 - 7.8 - - - - - - -
30/03:00am 11.0 NW 1 3 1012.4 - 7.8 Rain - - - - - -
30/02:30am 10.8 NNW 2 4 1012.4 - 7.0 - - - - - - -
30/02:00am 10.6 N 3 5 1012.0 - 6.8 - - - - - - -
30/01:30am 10.4 N 3 5 1011.9 - 6.4 - - - - - - -
30/01:00am 10.5 NNW 3 5 1012.2 - 6.0 - - - - - - -
30/12:30am 10.9 NW 3 5 1011.9 - 5.4 - - - - - - -
30/12:00am 11.0 WNW 4 6 1012.2 - 4.8 Recent precip. - - - - - -
 
Date/Time
EDT
Temp
°C
Wind Pressure Rain since
9am
mm
Weather Cloud Vis
km
Sea
Height
m
Swell
Dir  Spd
kts
Gust
kts
hPa Trend Height
m
Period
s
Dir
29/11:30pm 11.1 W 5 7 1011.8 - 4.4 - - - - - - -
29/11:00pm 11.0 WSW 10 15 1011.7 - 3.8 - - - - - - -
29/10:30pm 12.1 WSW 8 14 1011.6 - 2.4 - - - - - - -
29/10:00pm 12.5 SW 12 20 1011.0 - 0.8 - - - - - - -
29/09:30pm 13.2 SW 13 20 1010.5 - 0.0 - - - - - - -
29/09:00pm 14.9 SW 15 23 1009.4 - 0.0 - - - - - - -
29/08:45pm 14.8 SW 15 25 1009.0 - 0.0 - - - - - - -
29/08:30pm 14.7 SW 15 23 1008.5 - 0.0 - - - - - - -
29/08:18pm 14.7 SW 20 30 1008.2 - 0.0 - - - - - - -
29/08:00pm 14.8 SW 20 29 1007.9 - 0.0 - - - - - - -
29/07:40pm 15.2 SW 18 28 1008.0 - 0.0 - - - - - - -
29/07:30pm 15.2 SW 20 29 1007.6 - 0.0 - - - - - - -
29/07:00pm 16.1 SW 20 31 1006.7 - 0.0 - - - - - - -
29/06:32pm 20.0 WSW 12 29 1005.6 - 0.0 - - - - - - -
29/06:30pm 23.0 W 10 17 1005.2 - 0.0 - - - - - - -
29/06:00pm 23.6 WNW 11 18 1004.1 - 0.0 - - - - - - -
29/05:30pm 23.9 WNW 11 17 1003.9 - 0.0 - - - - - - -
29/05:00pm 24.6 W 11 16 1003.8 - 0.0 - - - - - - -
29/04:30pm 25.3 WNW 11 21 1003.7 - 0.0 - - - - - - -
29/04:00pm 25.9 NW 14 24 1003.5 - 0.0 - - - - - - -
29/03:30pm 25.1 NW 10 21 1003.8 - 0.0 - - - - - - -
29/03:00pm 25.0 WNW 8 13 1004.2 - 0.0 - - - - - - -
29/02:30pm 23.2 WNW 7 11 1004.8 - 0.0 - - - - - - -
29/02:00pm 23.6 NW 9 14 1005.2 - 0.0 - - - - - - -
29/01:30pm 24.1 NW 11 21 1005.4 - 0.0 - - - - - - -
29/01:00pm 23.7 NNW 11 18 1006.1 - 0.0 - - - - - - -
29/12:30pm 24.2 NNW 12 21 1006.5 - 0.0 - - - - - - -
29/12:00pm 23.9 NW 12 21 1006.8 - 0.0 - - - - - - -
29/11:30am 23.2 NNW 10 19 1007.3 - 0.0 - - - - - - -
29/11:00am 21.6 NNW 10 17 1007.7 - 0.0 - - - - - - -
29/10:30am 20.8 NNW 6 11 1008.0 - 0.0 - - - - - - -
29/10:00am 18.1 NNW 5 8 1008.3 - 0.0 - - - - - - -
29/09:30am 16.4 N 2 3 1008.5 - 0.0 - - - - - - -
29/09:00am 15.1 N 1 2 1008.6 - 0.0 - - - - - - -
29/08:30am 14.5 CALM 0 1 1008.8 - 0.0 - - - - - - -
29/08:00am 13.5 NW 2 3 1008.9 - 0.0 - - - - - - -
29/07:30am 13.3 NW 2 3 1008.9 - 0.0 - - - - - - -
29/07:00am 13.9 NNW 3 3 1008.9 - 0.0 - - - - - - -
29/06:30am 13.4 NW 4 5 1009.0 - 0.0 - - - - - - -
29/06:00am 12.5 SSW 3 4 1008.5 - 0.0 - - - - - - -
29/05:30am 9.1 SSW 1 2 1008.4 - 0.0 - - - - - - -
29/05:00am 9.4 CALM 0 2 1008.4 - 0.0 - - - - - - -
29/04:30am 10.1 CALM 0 0 1008.8 - 0.0 - - - - - - -
29/04:00am 9.3 CALM 0 0 1009.1 - 0.0 - - - - - - -
29/03:30am 10.3 CALM 0 0 1009.4 - 0.0 - - - - - - -
29/03:00am 9.8 CALM 0 0 1009.8 - 0.0 - - - - - - -
29/02:30am 10.6 SSW 1 2 1010.0 - 0.0 - - - - - - -
29/02:00am 10.3 CALM 0 0 1010.3 - 0.0 - - - - - - -
29/01:30am 10.9 CALM 0 0 1010.5 - 0.0 - - - - - - -
29/01:00am 10.8 SSW 1 3 1010.7 - 0.0 - - - - - - -
29/12:30am 10.7 SSW 2 3 1010.9 - 0.0 - - - - - - -
29/12:00am 11.2 CALM 0 0 1011.0 - 0.0 - - - - - - -
 
Date/Time
EDT
Temp
°C
Wind Pressure Rain since
9am
mm
Weather Cloud Vis
km
Sea
Height
m
Swell
Dir  Spd
kts
Gust
kts
hPa Trend Height
m
Period
s
Dir
28/11:30pm 11.5 CALM 0 0 1011.6 - 0.0 - - - - - - -
28/11:00pm 11.7 SSW 1 2 1011.9 - 0.0 - - - - - - -
28/10:30pm 12.0 CALM 0 2 1012.0 - 0.0 - - - - - - -
28/10:00pm 12.6 SSW 1 2 1012.2 - 0.0 - - - - - - -
28/09:30pm 13.5 CALM 0 0 1012.1 - 0.0 - - - - - - -
28/09:00pm 14.6 CALM 0 2 1012.1 - 0.0 - - - - - - -
28/08:30pm 15.1 SSW 2 3 1011.9 - 0.0 - - - - - - -
28/08:00pm 15.8 SSW 2 2 1011.8 - 0.0 - - - - - - -
28/07:30pm 16.4 SSW 3 5 1011.7 - 0.0 - - - - - - -
28/07:00pm 17.7 SSW 5 8 1011.6 - 0.0 - - - - - - -
28/06:30pm 18.8 SSW 5 9 1011.5 - 0.0 - - - - - - -
28/06:00pm 21.1 SSW 4 6 1011.3 - 0.0 - - - - - - -
28/05:30pm 22.4 NW 3 8 1011.1 - 0.0 - - - - - - -
28/05:00pm 22.2 NW 4 6 1011.2 - 0.0 - - - - - - -
28/04:30pm 22.0 W 5 10 1011.5 - 0.0 - - - - - - -
28/04:00pm 21.6 NW 6 9 1011.7 - 0.0 - - - - - - -
28/03:30pm 20.6 NW 5 9 1011.9 - 0.0 - - - - - - -
28/03:00pm 20.4 NW 4 8 1012.1 - 0.0 - - - - - - -
28/02:30pm 20.9 NW 5 10 1012.5 - 0.0 - - - - - - -
28/02:00pm 20.6 W 6 10 1012.7 - 0.0 - - - - - - -
28/01:30pm 20.2 WNW 7 13 1013.0 - 0.0 - - - - - - -
28/01:00pm 19.4 WSW 6 11 1013.5 - 0.0 - - - - - - -
28/12:30pm 19.4 WNW 9 14 1013.9 - 0.0 - - - - - - -
28/12:00pm 18.1 WNW 9 14 1014.2 - 0.0 - - - - - - -
28/11:30am 18.3 WNW 8 12 1014.3 - 0.0 - - - - - - -
28/11:00am 17.8 WNW 8 15 1014.5 - 0.0 - - - - - - -
28/10:30am 16.9 WNW 10 15 1014.7 - 0.0 - - - - - - -
28/10:00am 17.1 WNW 9 14 1014.4 - 0.0 - - - - - - -
28/09:30am 16.8 WNW 7 10 1014.3 - 0.0 - - - - - - -
28/09:00am 16.4 WNW 5 7 1014.1 - 2.8 - - - - - - -
28/08:30am 15.3 NW 3 5 1013.9 - 2.8 - - - - - - -
28/08:00am 14.2 NW 4 7 1013.9 - 2.8 - - - - - - -
28/07:30am 14.2 W 4 8 1013.6 - 2.8 - - - - - - -
28/07:00am 14.0 WNW 4 6 1013.6 - 2.8 - - - - - - -
28/06:30am 14.2 WNW 5 7 1013.4 - 2.8 - - - - - - -
28/06:00am 13.7 WNW 5 8 1013.2 - 2.8 - - - - - - -
28/05:30am 14.0 NW 4 6 1013.0 - 2.8 - - - - - - -
28/05:00am 13.2 NW 4 7 1012.9 - 2.8 - - - - - - -
28/04:30am 12.3 NW 5 8 1012.7 - 2.8 - - - - - - -
28/04:00am 12.6 NNW 3 3 1012.8 - 2.8 - - - - - - -

Other Formats:

Comma delimited format used in spreadsheet applications
http://www.bom.gov.au/fwo/IDV60701/IDV60701.94898.axf

JavaScript Object Notation format (JSON) in row-major order
http://www.bom.gov.au/fwo/IDV60701/IDV60701.94898.json